Time,TemperatureF,DewpointF,PressureIn,WindDirection,WindDirectionDegrees,WindSpeedMPH,WindSpeedGustMPH,Humidity,HourlyPrecipIn,Conditions,Clouds,dailyrainin,SoftwareType,DateUTC
2013-03-10 00:01:00,40.3,39.0,30.33,NNW,330,0.0,0.0,95,0.00,,,0.00,LWC V1.00 B64,2013-03-10 08:01:00,
2013-03-10 00:06:00,40.3,39.0,30.33,NNW,330,0.0,0.0,95,0.00,,,0.00,LWC V1.00 B64,2013-03-10 08:06:00,
2013-03-10 00:11:00,40.3,39.0,30.33,NNW,331,0.0,1.0,95,0.00,,,0.00,LWC V1.00 B64,2013-03-10 08:11:00,
2013-03-10 00:16:00,40.4,39.1,30.33,NNW,331,0.0,0.0,95,0.00,,,0.00,LWC V1.00 B64,2013-03-10 08:16:00,
2013-03-10 00:21:00,40.7,39.4,30.33,NNW,331,0.0,0.0,95,0.00,,,0.00,LWC V1.00 B64,2013-03-10 08:21:00,
2013-03-10 00:26:00,40.7,39.4,30.33,NNW,331,0.0,0.0,95,0.00,,,0.00,LWC V1.00 B64,2013-03-10 08:26:00,
2013-03-10 00:31:00,40.7,39.4,30.34,NNW,330,0.0,0.0,95,0.00,,,0.00,LWC V1.00 B64,2013-03-10 08:31:00,
2013-03-10 00:36:00,40.5,38.9,30.34,NNW,331,0.0,0.0,94,0.00,,,0.00,LWC V1.00 B64,2013-03-10 08:36:00,
2013-03-10 00:41:00,40.4,39.1,30.34,NNW,331,0.0,0.0,95,0.00,,,0.00,LWC V1.00 B64,2013-03-10 08:41:00,
2013-03-10 00:46:00,40.1,38.8,30.33,NNW,331,0.0,0.0,95,0.00,,,0.00,LWC V1.00 B64,2013-03-10 08:46:00,
2013-03-10 00:51:00,39.9,38.3,30.33,NNW,330,0.0,0.0,94,0.00,,,0.00,LWC V1.00 B64,2013-03-10 08:51:00,
2013-03-10 00:56:00,39.6,38.0,30.34,NNW,331,0.0,0.0,94,0.00,,,0.00,LWC V1.00 B64,2013-03-10 08:56:00,
2013-03-10 01:01:00,39.4,37.8,30.34,NNW,331,1.0,2.0,94,0.00,,,0.00,LWC V1.00 B64,2013-03-10 09:01:00,
2013-03-10 01:06:00,39.3,38.0,30.34,NNW,330,0.0,0.0,95,0.00,,,0.00,LWC V1.00 B64,2013-03-10 09:06:00,
2013-03-10 01:11:00,39.1,37.8,30.34,NNW,330,0.0,1.0,95,0.00,,,0.00,LWC V1.00 B64,2013-03-10 09:11:00,
2013-03-10 01:16:00,38.9,37.6,30.34,NNW,331,0.0,0.0,95,0.00,,,0.00,LWC V1.00 B64,2013-03-10 09:16:00,
2013-03-10 01:21:00,38.9,37.6,30.34,NNW,331,0.0,0.0,95,0.00,,,0.00,LWC V1.00 B64,2013-03-10 09:21:00,
2013-03-10 01:26:00,38.9,37.6,30.34,NNW,330,0.0,0.0,95,0.00,,,0.00,LWC V1.00 B64,2013-03-10 09:26:00,
2013-03-10 01:31:00,38.9,37.6,30.34,NNW,330,0.0,0.0,95,0.00,,,0.00,LWC V1.00 B64,2013-03-10 09:31:00,
2013-03-10 01:36:00,39.1,37.8,30.34,NNW,331,0.0,1.0,95,0.00,,,0.00,LWC V1.00 B64,2013-03-10 09:36:00,
2013-03-10 01:41:00,39.3,38.0,30.34,NNW,330,0.0,0.0,95,0.00,,,0.00,LWC V1.00 B64,2013-03-10 09:41:00,
2013-03-10 01:46:00,39.4,38.1,30.34,NNW,330,0.0,0.0,95,0.00,,,0.00,LWC V1.00 B64,2013-03-10 09:46:00,
2013-03-10 01:51:00,39.5,38.2,30.34,NNW,331,1.0,1.0,95,0.00,,,0.00,LWC V1.00 B64,2013-03-10 09:51:00,
2013-03-10 01:56:00,39.8,38.8,30.34,NNW,331,0.0,0.0,96,0.00,,,0.00,LWC V1.00 B64,2013-03-10 09:56:00,
2013-03-10 03:01:00,39.9,38.6,30.34,NNW,331,0.0,0.0,95,0.00,,,0.00,LWC V1.00 B64,2013-03-10 10:01:00,
2013-03-10 03:06:00,40.0,39.0,30.34,NNW,330,0.0,0.0,96,0.00,,,0.00,LWC V1.00 B64,2013-03-10 10:06:00,
2013-03-10 03:11:00,40.2,39.2,30.34,NNW,331,0.0,0.0,96,0.00,,,0.00,LWC V1.00 B64,2013-03-10 10:11:00,
2013-03-10 03:16:00,40.3,39.3,30.34,NNW,331,0.0,0.0,96,0.00,,,0.00,LWC V1.00 B64,2013-03-10 10:16:00,
2013-03-10 03:21:00,40.4,39.4,30.34,NNW,330,0.0,0.0,96,0.00,,,0.00,LWC V1.00 B64,2013-03-10 10:21:00,
2013-03-10 03:26:00,40.7,39.6,30.34,NNW,331,0.0,0.0,96,0.00,,,0.00,LWC V1.00 B64,2013-03-10 10:26:00,
2013-03-10 03:31:00,40.7,39.6,30.34,NNW,331,0.0,0.0,96,0.00,,,0.00,LWC V1.00 B64,2013-03-10 10:31:00,
2013-03-10 03:36:00,40.5,39.5,30.34,NNW,331,0.0,1.0,96,0.00,,,0.00,LWC V1.00 B64,2013-03-10 10:36:00,
2013-03-10 03:41:00,40.4,39.1,30.34,NNW,330,0.0,1.0,95,0.00,,,0.00,LWC V1.00 B64,2013-03-10 10:41:00,
2013-03-10 03:46:00,40.3,39.0,30.33,NNW,331,0.0,0.0,95,0.00,,,0.00,LWC V1.00 B64,2013-03-10 10:46:00,
2013-03-10 03:51:00,40.4,39.4,30.33,NNW,331,0.0,0.0,96,0.00,,,0.00,LWC V1.00 B64,2013-03-10 10:51:00,
2013-03-10 03:56:00,40.4,39.4,30.33,NNW,330,0.0,0.0,96,0.00,,,0.00,LWC V1.00 B64,2013-03-10 10:56:00,
2013-03-10 04:01:00,40.4,39.4,30.33,NNW,331,0.0,0.0,96,0.00,,,0.00,LWC V1.00 B64,2013-03-10 11:01:00,
2013-03-10 04:06:00,40.4,39.4,30.33,NNW,331,0.0,0.0,96,0.00,,,0.00,LWC V1.00 B64,2013-03-10 11:06:00,
2013-03-10 04:11:00,40.5,39.5,30.33,NNW,331,0.0,0.0,96,0.00,,,0.00,LWC V1.00 B64,2013-03-10 11:11:00,
2013-03-10 04:16:00,40.6,39.5,30.32,NNW,331,0.0,2.0,96,0.00,,,0.01,LWC V1.00 B64,2013-03-10 11:16:00,
2013-03-10 04:21:00,40.5,39.5,30.32,NNW,330,0.0,1.0,96,0.00,,,0.01,LWC V1.00 B64,2013-03-10 11:21:00,
2013-03-10 04:26:00,40.3,39.0,30.32,NNW,331,0.0,1.0,95,0.00,,,0.01,LWC V1.00 B64,2013-03-10 11:26:00,
2013-03-10 04:31:00,40.2,39.2,30.32,NNW,331,0.0,1.0,96,0.00,,,0.01,LWC V1.00 B64,2013-03-10 11:31:00,
2013-03-10 04:36:00,40.0,39.0,30.32,NNW,331,0.0,0.0,96,0.00,,,0.01,LWC V1.00 B64,2013-03-10 11:36:00,
2013-03-10 04:41:00,40.0,39.0,30.32,NNW,331,0.0,0.0,96,0.00,,,0.01,LWC V1.00 B64,2013-03-10 11:41:00,
2013-03-10 04:46:00,39.9,38.9,30.32,NNW,331,0.0,0.0,96,0.00,,,0.01,LWC V1.00 B64,2013-03-10 11:46:00,
2013-03-10 04:51:00,39.8,38.8,30.32,NNW,331,0.0,0.0,96,0.00,,,0.01,LWC V1.00 B64,2013-03-10 11:51:00,
2013-03-10 04:56:00,39.8,38.8,30.32,NNW,330,0.0,0.0,96,0.00,,,0.01,LWC V1.00 B64,2013-03-10 11:56:00,
2013-03-10 05:01:00,39.7,38.7,30.32,NNW,331,0.0,1.0,96,0.00,,,0.01,LWC V1.00 B64,2013-03-10 12:01:00,
2013-03-10 05:06:00,39.5,38.5,30.33,NNW,331,0.0,0.0,96,0.00,,,0.01,LWC V1.00 B64,2013-03-10 12:06:00,
2013-03-10 05:11:00,39.3,38.0,30.33,NNW,331,0.0,0.0,95,0.00,,,0.01,LWC V1.00 B64,2013-03-10 12:11:00,
2013-03-10 05:16:00,39.3,38.3,30.33,NNW,331,0.0,0.0,96,0.00,,,0.01,LWC V1.00 B64,2013-03-10 12:16:00,
2013-03-10 05:21:00,39.0,38.0,30.33,NNW,331,0.0,0.0,96,0.00,,,0.01,LWC V1.00 B64,2013-03-10 12:21:00,
2013-03-10 05:26:00,38.9,37.9,30.33,NNW,331,0.0,0.0,96,0.00,,,0.01,LWC V1.00 B64,2013-03-10 12:26:00,
2013-03-10 05:31:00,38.9,37.9,30.33,NNW,330,0.0,0.0,96,0.00,,,0.01,LWC V1.00 B64,2013-03-10 12:31:00,
2013-03-10 05:36:00,38.9,37.9,30.33,NNW,330,0.0,0.0,96,0.00,,,0.01,LWC V1.00 B64,2013-03-10 12:36:00,
2013-03-10 05:41:00,38.9,37.9,30.33,NNW,331,0.0,0.0,96,0.00,,,0.01,LWC V1.00 B64,2013-03-10 12:41:00,
2013-03-10 05:46:00,39.0,38.0,30.33,NNW,331,0.0,0.0,96,0.00,,,0.01,LWC V1.00 B64,2013-03-10 12:46:00,
2013-03-10 05:51:00,39.1,38.1,30.33,NNW,330,0.0,1.0,96,0.00,,,0.01,LWC V1.00 B64,2013-03-10 12:51:00,
2013-03-10 05:56:00,39.0,38.0,30.33,NNW,331,0.0,0.0,96,0.00,,,0.01,LWC V1.00 B64,2013-03-10 12:56:00,
2013-03-10 06:01:00,38.9,37.9,30.33,NNW,331,0.0,1.0,96,0.00,,,0.01,LWC V1.00 B64,2013-03-10 13:01:00,
2013-03-10 06:06:00,38.8,37.8,30.33,NNW,330,0.0,1.0,96,0.00,,,0.01,LWC V1.00 B64,2013-03-10 13:06:00,
2013-03-10 06:11:00,38.8,37.8,30.33,NNW,331,0.0,1.0,96,0.00,,,0.01,LWC V1.00 B64,2013-03-10 13:11:00,
2013-03-10 06:16:00,38.8,37.8,30.33,NNW,331,0.0,0.0,96,0.00,,,0.01,LWC V1.00 B64,2013-03-10 13:16:00,
2013-03-10 06:21:00,38.7,37.7,30.33,NNW,331,0.0,0.0,96,0.00,,,0.01,LWC V1.00 B64,2013-03-10 13:21:00,
2013-03-10 06:26:00,38.7,37.7,30.33,NNW,331,0.0,0.0,96,0.00,,,0.01,LWC V1.00 B64,2013-03-10 13:26:00,
2013-03-10 06:31:00,38.7,37.7,30.33,NNW,330,0.0,0.0,96,0.00,,,0.01,LWC V1.00 B64,2013-03-10 13:31:00,
2013-03-10 06:36:00,38.8,37.8,30.33,NNW,331,1.0,1.0,96,0.00,,,0.01,LWC V1.00 B64,2013-03-10 13:36:00,
2013-03-10 06:41:00,38.8,37.8,30.33,NNW,331,0.0,1.0,96,0.00,,,0.01,LWC V1.00 B64,2013-03-10 13:41:00,
2013-03-10 06:46:00,38.8,37.8,30.33,NNW,330,0.0,1.0,96,0.00,,,0.01,LWC V1.00 B64,2013-03-10 13:46:00,
2013-03-10 06:51:00,38.8,37.8,30.34,NNW,331,0.0,0.0,96,0.00,,,0.01,LWC V1.00 B64,2013-03-10 13:51:00,
2013-03-10 06:53:00,38.7,37.7,30.34,NNW,330,0.0,0.0,96,0.00,,,0.01,LWC V1.00 B64,2013-03-10 13:53:00,
2013-03-10 06:58:00,38.7,37.7,30.34,NNW,331,0.0,1.0,96,0.00,,,0.01,LWC V1.00 B64,2013-03-10 13:58:00,
2013-03-10 07:03:00,38.8,37.8,30.34,NNW,331,0.0,0.0,96,0.00,,,0.01,LWC V1.00 B64,2013-03-10 14:03:00,
2013-03-10 07:08:00,38.9,37.9,30.34,NNW,331,0.0,1.0,96,0.00,,,0.01,LWC V1.00 B64,2013-03-10 14:08:00,
2013-03-10 07:13:00,39.0,38.0,30.34,NNW,330,0.0,0.0,96,0.00,,,0.01,LWC V1.00 B64,2013-03-10 14:13:00,
2013-03-10 07:18:00,39.0,38.0,30.34,NNW,330,0.0,0.0,96,0.00,,,0.01,LWC V1.00 B64,2013-03-10 14:18:00,
2013-03-10 07:23:00,39.0,38.0,30.34,NNW,331,1.0,1.0,96,0.00,,,0.01,LWC V1.00 B64,2013-03-10 14:23:00,
2013-03-10 07:28:00,38.8,37.8,30.34,NNW,330,0.0,0.0,96,0.00,,,0.01,LWC V1.00 B64,2013-03-10 14:28:00,
2013-03-10 07:33:00,38.9,37.9,30.34,NNW,330,0.0,0.0,96,0.00,,,0.01,LWC V1.00 B64,2013-03-10 14:33:00,
2013-03-10 07:38:00,39.2,38.2,30.34,NNW,331,0.0,0.0,96,0.00,,,0.01,LWC V1.00 B64,2013-03-10 14:38:00,
2013-03-10 07:43:00,39.4,38.6,30.35,NNW,331,0.0,0.0,97,0.00,,,0.01,LWC V1.00 B64,2013-03-10 14:43:00,
2013-03-10 07:48:00,39.4,38.6,30.35,NNW,331,0.0,1.0,97,0.00,,,0.01,LWC V1.00 B64,2013-03-10 14:48:00,
2013-03-10 07:53:00,39.4,38.4,30.35,NNW,329,0.0,2.0,96,0.00,,,0.01,LWC V1.00 B64,2013-03-10 14:53:00,
2013-03-10 07:58:00,39.4,38.4,30.35,NNW,328,0.0,1.0,96,0.00,,,0.01,LWC V1.00 B64,2013-03-10 14:58:00,
2013-03-10 08:03:00,39.4,38.4,30.35,NNW,329,0.0,1.0,96,0.00,,,0.01,LWC V1.00 B64,2013-03-10 15:03:00,
2013-03-10 08:08:00,39.2,38.2,30.35,NNW,329,0.0,0.0,96,0.00,,,0.01,LWC V1.00 B64,2013-03-10 15:08:00,
2013-03-10 08:13:00,39.2,38.2,30.35,NNW,329,0.0,2.0,96,0.00,,,0.01,LWC V1.00 B64,2013-03-10 15:13:00,
2013-03-10 08:18:00,39.2,38.2,30.35,NNW,329,0.0,2.0,96,0.00,,,0.01,LWC V1.00 B64,2013-03-10 15:18:00,
2013-03-10 08:23:00,39.2,38.2,30.35,NNW,329,1.0,1.0,96,0.00,,,0.01,LWC V1.00 B64,2013-03-10 15:23:00,
2013-03-10 08:28:00,39.3,38.3,30.35,NW,326,0.0,1.0,96,0.00,,,0.01,LWC V1.00 B64,2013-03-10 15:28:00,
2013-03-10 08:33:00,39.4,38.4,30.35,NW,326,0.0,0.0,96,0.00,,,0.01,LWC V1.00 B64,2013-03-10 15:33:00,
2013-03-10 08:38:00,39.6,38.8,30.36,NW,326,0.0,0.0,97,0.00,,,0.01,LWC V1.00 B64,2013-03-10 15:38:00,
2013-03-10 08:43:00,39.6,38.6,30.35,NW,326,0.0,0.0,96,0.00,,,0.01,LWC V1.00 B64,2013-03-10 15:43:00,
2013-03-10 08:48:00,39.7,38.7,30.36,NW,326,0.0,0.0,96,0.00,,,0.01,LWC V1.00 B64,2013-03-10 15:48:00,
2013-03-10 08:53:00,39.8,38.8,30.36,NW,326,0.0,1.0,96,0.00,,,0.01,LWC V1.00 B64,2013-03-10 15:53:00,
2013-03-10 08:58:00,40.4,39.6,30.36,NW,326,0.0,0.0,97,0.00,,,0.01,LWC V1.00 B64,2013-03-10 15:58:00,
2013-03-10 09:04:00,41.3,40.5,30.35,NW,326,0.0,0.0,97,0.00,,,0.01,LWC V1.00 B64,2013-03-10 16:04:00,
2013-03-10 09:09:00,42.1,41.3,30.36,NW,326,0.0,1.0,97,0.00,,,0.01,LWC V1.00 B64,2013-03-10 16:09:00,
2013-03-10 09:14:00,42.7,41.9,30.36,NW,326,0.0,1.0,97,0.00,,,0.01,LWC V1.00 B64,2013-03-10 16:14:00,
2013-03-10 09:19:00,42.9,42.1,30.36,NW,326,0.0,1.0,97,0.00,,,0.01,LWC V1.00 B64,2013-03-10 16:19:00,
2013-03-10 09:24:00,43.1,42.3,30.36,NW,326,0.0,1.0,97,0.00,,,0.01,LWC V1.00 B64,2013-03-10 16:24:00,
2013-03-10 09:29:00,43.5,42.7,30.36,NW,326,0.0,1.0,97,0.00,,,0.01,LWC V1.00 B64,2013-03-10 16:29:00,
2013-03-10 09:34:00,43.7,42.9,30.36,NW,326,0.0,1.0,97,0.00,,,0.01,LWC V1.00 B64,2013-03-10 16:34:00,
2013-03-10 09:39:00,44.1,43.3,30.36,NW,326,0.0,1.0,97,0.00,,,0.01,LWC V1.00 B64,2013-03-10 16:39:00,
2013-03-10 09:44:00,44.3,43.5,30.36,NW,326,1.0,1.0,97,0.00,,,0.01,LWC V1.00 B64,2013-03-10 16:44:00,
2013-03-10 09:49:00,44.6,43.8,30.36,NW,326,0.0,1.0,97,0.00,,,0.01,LWC V1.00 B64,2013-03-10 16:49:00,
2013-03-10 09:54:00,44.9,44.1,30.36,NW,326,0.0,1.0,97,0.00,,,0.01,LWC V1.00 B64,2013-03-10 16:54:00,
2013-03-10 09:59:00,45.1,44.3,30.36,NW,326,0.0,1.0,97,0.00,,,0.01,LWC V1.00 B64,2013-03-10 16:59:00,
2013-03-10 10:04:00,45.8,45.0,30.36,NW,326,0.0,0.0,97,0.00,,,0.01,LWC V1.00 B64,2013-03-10 17:04:00,
2013-03-10 10:09:00,46.6,45.8,30.35,NW,326,0.0,1.0,97,0.00,,,0.01,LWC V1.00 B64,2013-03-10 17:09:00,
2013-03-10 10:14:00,47.1,46.3,30.35,NW,326,0.0,1.0,97,0.00,,,0.01,LWC V1.00 B64,2013-03-10 17:14:00,
2013-03-10 10:19:00,47.7,46.9,30.35,NW,326,0.0,1.0,97,0.00,,,0.01,LWC V1.00 B64,2013-03-10 17:19:00,
2013-03-10 10:24:00,47.9,46.8,30.35,NW,326,0.0,0.0,96,0.00,,,0.01,LWC V1.00 B64,2013-03-10 17:24:00,
2013-03-10 10:29:00,48.7,47.6,30.35,NW,326,0.0,2.0,96,0.00,,,0.01,LWC V1.00 B64,2013-03-10 17:29:00,
2013-03-10 10:34:00,49.6,48.8,30.35,NW,325,0.0,1.0,97,0.00,,,0.01,LWC V1.00 B64,2013-03-10 17:34:00,
2013-03-10 10:39:00,50.6,49.5,30.35,NW,323,2.0,2.0,96,0.00,,,0.01,LWC V1.00 B64,2013-03-10 17:39:00,
2013-03-10 10:44:00,51.1,49.7,30.34,NW,323,0.0,2.0,95,0.00,,,0.01,LWC V1.00 B64,2013-03-10 17:44:00,
2013-03-10 10:49:00,50.9,48.9,30.34,NW,323,0.0,1.0,93,0.00,,,0.01,LWC V1.00 B64,2013-03-10 17:49:00,
2013-03-10 10:54:00,51.1,49.1,30.35,NW,323,0.0,1.0,93,0.00,,,0.01,LWC V1.00 B64,2013-03-10 17:54:00,
2013-03-10 10:59:00,51.5,49.3,30.35,NW,323,0.0,0.0,92,0.00,,,0.01,LWC V1.00 B64,2013-03-10 17:59:00,
2013-03-10 11:04:00,51.9,49.4,30.35,NW,323,0.0,1.0,91,0.00,,,0.01,LWC V1.00 B64,2013-03-10 18:04:00,
2013-03-10 11:10:00,53.2,49.7,30.35,NNW,330,0.0,3.0,88,0.00,,,0.01,LWC V1.00 B64,2013-03-10 18:10:00,
2013-03-10 11:15:00,54.0,49.3,30.34,NNW,330,0.0,3.0,84,0.00,,,0.01,LWC V1.00 B64,2013-03-10 18:15:00,
2013-03-10 11:20:00,54.6,48.9,30.34,NNW,331,0.0,1.0,81,0.00,,,0.01,LWC V1.00 B64,2013-03-10 18:20:00,
2013-03-10 11:25:00,55.2,48.8,30.34,NNW,336,3.0,5.0,79,0.00,,,0.01,LWC V1.00 B64,2013-03-10 18:25:00,
2013-03-10 11:30:00,55.5,47.7,30.34,NNW,336,3.0,3.0,75,0.00,,,0.01,LWC V1.00 B64,2013-03-10 18:30:00,
2013-03-10 11:35:00,56.3,47.8,30.34,NNW,340,3.0,3.0,73,0.00,,,0.01,LWC V1.00 B64,2013-03-10 18:35:00,
2013-03-10 11:40:00,56.9,48.7,30.34,NNW,337,2.0,3.0,74,0.00,,,0.01,LWC V1.00 B64,2013-03-10 18:40:00,
2013-03-10 11:45:00,57.7,50.2,30.34,NNW,337,0.0,4.0,76,0.00,,,0.01,LWC V1.00 B64,2013-03-10 18:45:00,
2013-03-10 11:50:00,58.1,49.1,30.34,NNW,338,0.0,4.0,72,0.00,,,0.01,LWC V1.00 B64,2013-03-10 18:50:00,
2013-03-10 11:55:00,58.5,48.4,30.34,NNW,340,3.0,4.0,69,0.00,,,0.01,LWC V1.00 B64,2013-03-10 18:55:00,
2013-03-10 12:00:00,59.0,48.8,30.33,NNW,338,1.0,3.0,69,0.00,,,0.01,LWC V1.00 B64,2013-03-10 19:00:00,
2013-03-10 12:05:00,59.8,48.8,30.33,NNW,342,0.0,5.0,67,0.00,,,0.01,LWC V1.00 B64,2013-03-10 19:05:00,
2013-03-10 12:10:00,60.1,48.3,30.33,NNW,336,0.0,4.0,65,0.00,,,0.01,LWC V1.00 B64,2013-03-10 19:10:00,
2013-03-10 12:15:00,60.0,46.9,30.33,NNW,334,2.0,4.0,62,0.00,,,0.01,LWC V1.00 B64,2013-03-10 19:15:00,
2013-03-10 12:20:00,60.4,47.3,30.33,NNW,334,1.0,4.0,62,0.00,,,0.01,LWC V1.00 B64,2013-03-10 19:20:00,
2013-03-10 12:25:00,61.0,46.6,30.33,NNW,348,6.0,6.0,59,0.00,,,0.01,LWC V1.00 B64,2013-03-10 19:25:00,
2013-03-10 12:30:00,61.2,51.3,30.33,WNW,292,2.0,3.0,70,0.00,,,0.01,LWC V1.00 B64,2013-03-10 19:30:00,
2013-03-10 12:35:00,61.8,53.0,30.33,NNW,348,0.0,5.0,73,0.00,,,0.01,LWC V1.00 B64,2013-03-10 19:35:00,
2013-03-10 12:40:00,62.3,53.2,30.33,NW,321,4.0,6.0,72,0.00,,,0.01,LWC V1.00 B64,2013-03-10 19:40:00,
2013-03-10 12:45:00,62.4,52.9,30.33,North,5,3.0,9.0,71,0.00,,,0.01,LWC V1.00 B64,2013-03-10 19:45:00,
2013-03-10 12:50:00,62.4,52.9,30.33,NNW,341,3.0,5.0,71,0.00,,,0.01,LWC V1.00 B64,2013-03-10 19:50:00,
2013-03-10 12:55:00,62.6,53.1,30.32,NNW,334,2.0,5.0,71,0.00,,,0.01,LWC V1.00 B64,2013-03-10 19:55:00,
2013-03-10 13:00:00,62.7,53.5,30.32,NW,324,4.0,7.0,72,0.00,,,0.01,LWC V1.00 B64,2013-03-10 20:00:00,
2013-03-10 13:05:00,62.4,53.2,30.32,NNW,337,7.0,9.0,72,0.00,,,0.01,LWC V1.00 B64,2013-03-10 20:05:00,
2013-03-10 13:10:00,62.3,52.8,30.32,North,355,4.0,9.0,71,0.00,,,0.01,LWC V1.00 B64,2013-03-10 20:10:00,
2013-03-10 13:15:00,62.0,52.5,30.32,North,0,6.0,8.0,71,0.00,,,0.01,LWC V1.00 B64,2013-03-10 20:15:00,
2013-03-10 13:20:00,61.8,52.3,30.32,North,355,5.0,10.0,71,0.00,,,0.01,LWC V1.00 B64,2013-03-10 20:20:00,
2013-03-10 13:25:00,61.7,52.6,30.32,North,355,4.0,6.0,72,0.00,,,0.01,LWC V1.00 B64,2013-03-10 20:25:00,
2013-03-10 13:30:00,62.0,52.1,30.31,North,0,4.0,9.0,70,0.00,,,0.01,LWC V1.00 B64,2013-03-10 20:30:00,
2013-03-10 13:35:00,62.3,52.0,30.31,NNW,343,6.0,9.0,69,0.00,,,0.01,LWC V1.00 B64,2013-03-10 20:35:00,
2013-03-10 13:40:00,62.3,51.6,30.31,North,351,6.0,8.0,68,0.00,,,0.01,LWC V1.00 B64,2013-03-10 20:40:00,
2013-03-10 13:45:00,62.3,51.6,30.31,North,9,4.0,9.0,68,0.00,,,0.01,LWC V1.00 B64,2013-03-10 20:45:00,
2013-03-10 13:50:00,62.3,51.6,30.31,North,350,4.0,10.0,68,0.00,,,0.01,LWC V1.00 B64,2013-03-10 20:50:00,
2013-03-10 13:55:00,62.5,52.6,30.30,North,355,2.0,6.0,70,0.00,,,0.01,LWC V1.00 B64,2013-03-10 20:55:00,
2013-03-10 14:00:00,62.7,51.6,30.30,NNW,330,6.0,7.0,67,0.00,,,0.01,LWC V1.00 B64,2013-03-10 21:00:00,
2013-03-10 14:05:00,63.1,51.1,30.30,NNW,345,4.0,6.0,65,0.00,,,0.01,LWC V1.00 B64,2013-03-10 21:05:00,
2013-03-10 14:10:00,63.2,51.2,30.30,NNW,346,3.0,4.0,65,0.00,,,0.01,LWC V1.00 B64,2013-03-10 21:10:00,
2013-03-10 14:15:00,63.6,50.8,30.30,North,355,5.0,10.0,63,0.00,,,0.01,LWC V1.00 B64,2013-03-10 21:15:00,
2013-03-10 14:20:00,63.0,49.8,30.29,NNW,339,9.0,11.0,62,0.00,,,0.01,LWC V1.00 B64,2013-03-10 21:20:00,
2013-03-10 14:25:00,62.9,50.1,30.29,NNW,331,5.0,6.0,63,0.00,,,0.01,LWC V1.00 B64,2013-03-10 21:25:00,
2013-03-10 14:30:00,63.2,49.5,30.29,NNW,348,5.0,9.0,61,0.00,,,0.01,LWC V1.00 B64,2013-03-10 21:30:00,
2013-03-10 14:35:00,63.5,50.2,30.30,NNW,345,5.0,7.0,62,0.00,,,0.01,LWC V1.00 B64,2013-03-10 21:35:00,
2013-03-10 14:40:00,63.6,49.5,30.29,North,0,5.0,9.0,60,0.00,,,0.01,LWC V1.00 B64,2013-03-10 21:40:00,
2013-03-10 14:45:00,63.6,49.5,30.29,North,0,6.0,8.0,60,0.00,,,0.01,LWC V1.00 B64,2013-03-10 21:45:00,
2013-03-10 14:50:00,63.6,49.9,30.29,North,5,6.0,10.0,61,0.00,,,0.01,LWC V1.00 B64,2013-03-10 21:50:00,
2013-03-10 14:55:00,63.5,49.8,30.29,NW,321,3.0,9.0,61,0.00,,,0.01,LWC V1.00 B64,2013-03-10 21:55:00,
2013-03-10 15:00:00,63.8,50.1,30.28,NNW,327,9.0,9.0,61,0.00,,,0.01,LWC V1.00 B64,2013-03-10 22:00:00,
2013-03-10 15:05:00,63.7,48.6,30.28,NNW,348,7.0,9.0,58,0.00,,,0.01,LWC V1.00 B64,2013-03-10 22:05:00,
2013-03-10 15:10:00,63.8,48.3,30.29,NW,326,7.0,10.0,57,0.00,,,0.01,LWC V1.00 B64,2013-03-10 22:10:00,
2013-03-10 15:15:00,63.8,49.2,30.29,NNW,345,6.0,10.0,59,0.00,,,0.01,LWC V1.00 B64,2013-03-10 22:15:00,
2013-03-10 15:20:00,63.6,48.5,30.29,NNW,340,5.0,12.0,58,0.00,,,0.01,LWC V1.00 B64,2013-03-10 22:20:00,
2013-03-10 15:25:00,63.5,48.0,30.29,NNW,347,7.0,11.0,57,0.00,,,0.01,LWC V1.00 B64,2013-03-10 22:25:00,
2013-03-10 15:30:00,63.4,48.4,30.29,NW,325,7.0,8.0,58,0.00,,,0.01,LWC V1.00 B64,2013-03-10 22:30:00,
2013-03-10 15:35:00,63.6,46.6,30.29,North,355,4.0,9.0,54,0.00,,,0.01,LWC V1.00 B64,2013-03-10 22:35:00,
2013-03-10 15:40:00,63.5,47.0,30.29,North,355,8.0,9.0,55,0.00,,,0.01,LWC V1.00 B64,2013-03-10 22:40:00,
2013-03-10 15:45:00,63.4,47.4,30.29,North,355,6.0,13.0,56,0.00,,,0.01,LWC V1.00 B64,2013-03-10 22:45:00,
2013-03-10 15:50:00,63.4,48.4,30.29,North,0,4.0,9.0,58,0.00,,,0.01,LWC V1.00 B64,2013-03-10 22:50:00,
2013-03-10 15:55:00,63.3,46.9,30.29,NNW,333,6.0,9.0,55,0.00,,,0.01,LWC V1.00 B64,2013-03-10 22:55:00,
2013-03-10 16:00:00,63.2,48.2,30.29,NNW,340,4.0,6.0,58,0.00,,,0.01,LWC V1.00 B64,2013-03-10 23:00:00,
2013-03-10 16:05:00,62.8,47.3,30.29,North,355,5.0,9.0,57,0.00,,,0.01,LWC V1.00 B64,2013-03-10 23:05:00,
2013-03-10 16:10:00,62.5,48.4,30.29,NNW,343,6.0,7.0,60,0.00,,,0.01,LWC V1.00 B64,2013-03-10 23:10:00,
2013-03-10 16:15:00,62.3,48.7,30.28,NNW,344,4.0,7.0,61,0.00,,,0.01,LWC V1.00 B64,2013-03-10 23:15:00,
2013-03-10 16:20:00,62.0,47.5,30.28,NNW,341,6.0,7.0,59,0.00,,,0.01,LWC V1.00 B64,2013-03-10 23:20:00,
2013-03-10 16:25:00,61.5,47.5,30.28,NNW,343,6.0,10.0,60,0.00,,,0.01,LWC V1.00 B64,2013-03-10 23:25:00,
2013-03-10 16:30:00,61.3,47.7,30.28,North,349,6.0,7.0,61,0.00,,,0.01,LWC V1.00 B64,2013-03-10 23:30:00,
2013-03-10 16:35:00,61.0,48.3,30.28,North,355,6.0,7.0,63,0.00,,,0.01,LWC V1.00 B64,2013-03-10 23:35:00,
2013-03-10 16:40:00,60.8,48.1,30.28,NNW,340,5.0,6.0,63,0.00,,,0.01,LWC V1.00 B64,2013-03-10 23:40:00,
2013-03-10 16:45:00,60.7,48.4,30.28,NNW,336,3.0,7.0,64,0.00,,,0.01,LWC V1.00 B64,2013-03-10 23:45:00,
2013-03-10 16:50:00,61.1,48.8,30.27,NNW,348,5.0,6.0,64,0.00,,,0.01,LWC V1.00 B64,2013-03-10 23:50:00,
2013-03-10 16:55:00,61.3,49.0,30.27,NNW,340,2.0,6.0,64,0.00,,,0.01,LWC V1.00 B64,2013-03-10 23:55:00,
2013-03-10 17:00:00,61.4,49.5,30.27,North,0,5.0,6.0,65,0.00,,,0.01,LWC V1.00 B64,2013-03-11 00:00:00,
2013-03-10 17:05:00,61.3,48.6,30.27,North,5,5.0,6.0,63,0.00,,,0.01,LWC V1.00 B64,2013-03-11 00:05:00,
2013-03-10 17:10:00,61.0,49.6,30.27,North,355,4.0,7.0,66,0.00,,,0.01,LWC V1.00 B64,2013-03-11 00:10:00,
2013-03-10 17:15:00,60.7,50.5,30.27,NW,325,6.0,10.0,69,0.00,,,0.01,LWC V1.00 B64,2013-03-11 00:15:00,
2013-03-10 17:20:00,59.6,50.9,30.27,NNW,334,12.0,13.0,73,0.00,,,0.01,LWC V1.00 B64,2013-03-11 00:20:00,
2013-03-10 17:25:00,57.6,50.1,30.27,North,350,10.0,18.0,76,0.00,,,0.01,LWC V1.00 B64,2013-03-11 00:25:00,
2013-03-10 17:30:00,55.9,49.8,30.27,NW,310,8.0,14.0,80,0.00,,,0.01,LWC V1.00 B64,2013-03-11 00:30:00,
2013-03-10 17:35:00,55.5,49.4,30.27,North,350,5.0,10.0,80,0.00,,,0.01,LWC V1.00 B64,2013-03-11 00:35:00,
2013-03-10 17:40:00,54.7,49.0,30.27,NNW,327,9.0,14.0,81,0.00,,,0.01,LWC V1.00 B64,2013-03-11 00:40:00,
2013-03-10 17:45:00,53.9,48.9,30.28,North,355,6.0,13.0,83,0.00,,,0.01,LWC V1.00 B64,2013-03-11 00:45:00,
2013-03-10 17:50:00,53.3,48.6,30.28,North,5,4.0,7.0,84,0.00,,,0.01,LWC V1.00 B64,2013-03-11 00:50:00,
2013-03-10 17:55:00,53.0,48.3,30.28,NNE,12,6.0,16.0,84,0.00,,,0.01,LWC V1.00 B64,2013-03-11 00:55:00,
2013-03-10 18:00:00,52.4,48.0,30.28,NNW,333,10.0,16.0,85,0.00,,,0.01,LWC V1.00 B64,2013-03-11 01:00:00,
2013-03-10 18:05:00,52.1,48.0,30.28,NNW,338,13.0,13.0,86,0.00,,,0.01,LWC V1.00 B64,2013-03-11 01:05:00,
2013-03-10 18:11:00,51.8,48.1,30.28,North,5,4.0,15.0,87,0.00,,,0.01,LWC V1.00 B64,2013-03-11 01:11:00,
2013-03-10 18:17:00,51.4,47.7,30.28,North,351,6.0,12.0,87,0.00,,,0.01,LWC V1.00 B64,2013-03-11 01:17:00,
2013-03-10 18:22:00,51.0,47.6,30.28,NNW,344,7.0,13.0,88,0.00,,,0.01,LWC V1.00 B64,2013-03-11 01:22:00,
2013-03-10 18:27:00,50.9,47.5,30.28,North,355,9.0,11.0,88,0.00,,,0.01,LWC V1.00 B64,2013-03-11 01:27:00,
2013-03-10 18:33:00,50.6,47.2,30.28,NW,325,9.0,10.0,88,0.00,,,0.01,LWC V1.00 B64,2013-03-11 01:33:00,
2013-03-10 18:38:00,50.4,47.3,30.28,NNE,15,6.0,7.0,89,0.00,,,0.01,LWC V1.00 B64,2013-03-11 01:38:00,
2013-03-10 18:43:00,50.3,47.2,30.28,NNW,344,3.0,9.0,89,0.00,,,0.01,LWC V1.00 B64,2013-03-11 01:43:00,
2013-03-10 18:48:00,50.1,47.0,30.29,NW,326,6.0,11.0,89,0.00,,,0.01,LWC V1.00 B64,2013-03-11 01:48:00,
2013-03-10 18:53:00,49.9,46.8,30.29,North,0,3.0,7.0,89,0.00,,,0.01,LWC V1.00 B64,2013-03-11 01:53:00,
2013-03-10 18:59:00,49.8,46.7,30.29,NNW,333,4.0,7.0,89,0.00,,,0.01,LWC V1.00 B64,2013-03-11 01:59:00,
2013-03-10 19:04:00,49.7,46.9,30.29,North,355,2.0,2.0,90,0.00,,,0.01,LWC V1.00 B64,2013-03-11 02:04:00,
2013-03-10 19:09:00,49.5,46.7,30.29,North,350,2.0,3.0,90,0.00,,,0.01,LWC V1.00 B64,2013-03-11 02:09:00,
2013-03-10 19:14:00,49.4,46.6,30.29,NNW,346,0.0,3.0,90,0.00,,,0.01,LWC V1.00 B64,2013-03-11 02:14:00,
2013-03-10 19:20:00,49.2,46.4,30.29,NNW,346,0.0,1.0,90,0.00,,,0.01,LWC V1.00 B64,2013-03-11 02:20:00,
2013-03-10 19:25:00,49.1,46.3,30.29,NNW,347,0.0,0.0,90,0.00,,,0.01,LWC V1.00 B64,2013-03-11 02:25:00,
2013-03-10 19:30:00,48.8,46.0,30.29,NNW,347,0.0,1.0,90,0.00,,,0.01,LWC V1.00 B64,2013-03-11 02:30:00,
2013-03-10 19:35:00,48.6,45.8,30.29,NNW,347,0.0,0.0,90,0.00,,,0.01,LWC V1.00 B64,2013-03-11 02:35:00,
2013-03-10 19:40:00,48.5,45.7,30.29,NNW,347,0.0,0.0,90,0.00,,,0.01,LWC V1.00 B64,2013-03-11 02:40:00,
2013-03-10 19:45:00,48.3,45.5,30.29,NNW,347,0.0,0.0,90,0.00,,,0.01,LWC V1.00 B64,2013-03-11 02:45:00,
2013-03-10 19:50:00,48.1,45.3,30.29,NNW,346,0.0,0.0,90,0.00,,,0.01,LWC V1.00 B64,2013-03-11 02:50:00,
2013-03-10 19:55:00,47.9,45.1,30.29,NNW,346,0.0,0.0,90,0.00,,,0.01,LWC V1.00 B64,2013-03-11 02:55:00,
2013-03-10 20:00:00,47.7,44.9,30.29,NNW,346,0.0,0.0,90,0.00,,,0.01,LWC V1.00 B64,2013-03-11 03:00:00,
2013-03-10 20:05:00,47.4,44.9,30.28,NNW,347,0.0,0.0,91,0.00,,,0.01,LWC V1.00 B64,2013-03-11 03:05:00,
2013-03-10 20:10:00,47.3,44.8,30.29,NNW,347,0.0,0.0,91,0.00,,,0.01,LWC V1.00 B64,2013-03-11 03:10:00,
2013-03-10 20:15:00,47.1,44.6,30.29,NNW,346,0.0,0.0,91,0.00,,,0.01,LWC V1.00 B64,2013-03-11 03:15:00,
2013-03-10 20:20:00,46.9,44.4,30.29,NNW,347,0.0,0.0,91,0.00,,,0.01,LWC V1.00 B64,2013-03-11 03:20:00,
2013-03-10 20:25:00,46.8,44.3,30.29,NNW,347,0.0,0.0,91,0.00,,,0.01,LWC V1.00 B64,2013-03-11 03:25:00,
2013-03-10 20:30:00,46.6,44.1,30.29,NNW,347,0.0,0.0,91,0.00,,,0.01,LWC V1.00 B64,2013-03-11 03:30:00,
2013-03-10 20:35:00,46.4,43.9,30.29,NNW,346,0.0,0.0,91,0.00,,,0.01,LWC V1.00 B64,2013-03-11 03:35:00,
2013-03-10 20:40:00,46.2,44.0,30.28,NNW,347,0.0,0.0,92,0.00,,,0.01,LWC V1.00 B64,2013-03-11 03:40:00,
2013-03-10 20:45:00,46.0,43.8,30.28,NNW,347,0.0,0.0,92,0.00,,,0.01,LWC V1.00 B64,2013-03-11 03:45:00,
2013-03-10 20:50:00,45.8,43.6,30.28,NNW,346,0.0,0.0,92,0.00,,,0.01,LWC V1.00 B64,2013-03-11 03:50:00,
2013-03-10 20:55:00,45.7,43.5,30.29,NNW,347,0.0,0.0,92,0.00,,,0.01,LWC V1.00 B64,2013-03-11 03:55:00,
2013-03-10 21:00:00,45.8,43.6,30.29,NNW,347,0.0,0.0,92,0.00,,,0.01,LWC V1.00 B64,2013-03-11 04:00:00,
2013-03-10 21:01:00,45.8,43.6,30.28,NNW,347,0.0,0.0,92,0.00,,,0.01,LWC V1.00 B64,2013-03-11 04:01:00,
2013-03-10 21:02:00,45.8,43.6,30.28,NNW,346,0.0,0.0,92,0.00,,,0.01,LWC V1.00 B64,2013-03-11 04:02:00,
2013-03-10 21:07:00,45.5,43.6,30.29,NNW,347,1.0,2.0,93,0.00,,,0.01,LWC V1.00 B64,2013-03-11 04:07:00,
2013-03-10 21:10:00,45.3,43.1,30.29,NNW,347,1.0,3.0,92,0.00,,,0.01,LWC V1.00 B64,2013-03-11 04:10:00,
2013-03-10 21:15:00,45.0,43.1,30.29,NNW,347,0.0,1.0,93,0.00,,,0.01,LWC V1.00 B64,2013-03-11 04:15:00,
2013-03-10 21:20:00,44.6,42.7,30.29,NNW,347,0.0,0.0,93,0.00,,,0.01,LWC V1.00 B64,2013-03-11 04:20:00,
2013-03-10 21:25:00,44.4,42.5,30.29,NNW,346,0.0,0.0,93,0.00,,,0.01,LWC V1.00 B64,2013-03-11 04:25:00,
2013-03-10 21:30:00,44.3,42.4,30.29,NNW,346,0.0,0.0,93,0.00,,,0.01,LWC V1.00 B64,2013-03-11 04:30:00,
2013-03-10 21:35:00,44.3,42.4,30.29,NNW,347,0.0,0.0,93,0.00,,,0.01,LWC V1.00 B64,2013-03-11 04:35:00,
2013-03-10 21:40:00,44.2,42.3,30.30,NNW,347,0.0,0.0,93,0.00,,,0.01,LWC V1.00 B64,2013-03-11 04:40:00,
2013-03-10 21:45:00,44.3,42.7,30.30,NNW,346,0.0,0.0,94,0.00,,,0.01,LWC V1.00 B64,2013-03-11 04:45:00,
2013-03-10 21:50:00,44.2,42.3,30.30,NNW,347,0.0,1.0,93,0.00,,,0.01,LWC V1.00 B64,2013-03-11 04:50:00,
2013-03-10 21:55:00,43.8,41.9,30.29,NNW,347,0.0,0.0,93,0.00,,,0.01,LWC V1.00 B64,2013-03-11 04:55:00,
2013-03-10 22:00:00,43.7,41.8,30.30,NNW,347,0.0,0.0,93,0.00,,,0.01,LWC V1.00 B64,2013-03-11 05:00:00,
2013-03-10 22:05:00,43.6,41.7,30.29,NNW,346,0.0,0.0,93,0.00,,,0.01,LWC V1.00 B64,2013-03-11 05:05:00,
2013-03-10 22:11:00,43.5,41.6,30.29,NNW,347,0.0,0.0,93,0.00,,,0.01,LWC V1.00 B64,2013-03-11 05:11:00,
2013-03-10 22:17:00,43.3,41.7,30.29,NNW,346,0.0,0.0,94,0.00,,,0.01,LWC V1.00 B64,2013-03-11 05:17:00,
2013-03-10 22:22:00,43.2,41.6,30.29,NNW,347,0.0,0.0,94,0.00,,,0.01,LWC V1.00 B64,2013-03-11 05:22:00,
2013-03-10 22:27:00,43.2,41.6,30.29,NNW,347,0.0,0.0,94,0.00,,,0.01,LWC V1.00 B64,2013-03-11 05:27:00,
2013-03-10 22:32:00,43.2,41.6,30.29,NNW,346,0.0,0.0,94,0.00,,,0.01,LWC V1.00 B64,2013-03-11 05:32:00,
2013-03-10 22:37:00,43.2,41.6,30.29,NNW,346,0.0,0.0,94,0.00,,,0.01,LWC V1.00 B64,2013-03-11 05:37:00,
2013-03-10 22:42:00,43.3,41.7,30.29,NNW,347,0.0,0.0,94,0.00,,,0.01,LWC V1.00 B64,2013-03-11 05:42:00,
2013-03-10 22:47:00,43.6,42.3,30.28,NNW,346,0.0,0.0,95,0.00,,,0.01,LWC V1.00 B64,2013-03-11 05:47:00,
2013-03-10 22:52:00,43.9,42.6,30.29,NNW,346,1.0,2.0,95,0.00,,,0.01,LWC V1.00 B64,2013-03-11 05:52:00,
2013-03-10 22:57:00,44.1,42.8,30.29,NNW,347,0.0,0.0,95,0.00,,,0.01,LWC V1.00 B64,2013-03-11 05:57:00,
2013-03-10 23:02:00,44.1,42.5,30.29,NNW,347,0.0,0.0,94,0.00,,,0.01,LWC V1.00 B64,2013-03-11 06:02:00,
2013-03-10 23:07:00,44.0,42.4,30.29,NNW,346,0.0,0.0,94,0.00,,,0.01,LWC V1.00 B64,2013-03-11 06:07:00,
2013-03-10 23:12:00,44.1,42.5,30.29,NNW,346,0.0,0.0,94,0.00,,,0.01,LWC V1.00 B64,2013-03-11 06:12:00,
2013-03-10 23:17:00,44.1,42.8,30.29,NNW,347,0.0,0.0,95,0.00,,,0.01,LWC V1.00 B64,2013-03-11 06:17:00,
2013-03-10 23:22:00,44.2,42.9,30.29,NNW,347,0.0,0.0,95,0.00,,,0.01,LWC V1.00 B64,2013-03-11 06:22:00,
2013-03-10 23:27:00,44.4,43.1,30.29,NNW,346,0.0,1.0,95,0.00,,,0.01,LWC V1.00 B64,2013-03-11 06:27:00,
2013-03-10 23:32:00,44.5,43.2,30.29,NNW,347,0.0,0.0,95,0.00,,,0.01,LWC V1.00 B64,2013-03-11 06:32:00,
2013-03-10 23:37:00,44.6,43.3,30.29,NNW,347,0.0,0.0,95,0.00,,,0.01,LWC V1.00 B64,2013-03-11 06:37:00,
2013-03-10 23:43:00,44.7,43.4,30.29,NNW,347,0.0,1.0,95,0.00,,,0.01,LWC V1.00 B64,2013-03-11 06:43:00,
2013-03-10 23:48:00,44.7,43.4,30.29,NNW,346,0.0,0.0,95,0.00,,,0.01,LWC V1.00 B64,2013-03-11 06:48:00,
2013-03-10 23:53:00,44.7,43.4,30.28,NNW,347,0.0,0.0,95,0.00,,,0.01,LWC V1.00 B64,2013-03-11 06:53:00,
2013-03-10 23:59:00,44.7,43.4,30.29,NNW,347,0.0,0.0,95,0.00,,,0.01,LWC V1.00 B64,2013-03-11 06:59:00,